Time;durP1;ratioP1;P1;durP2;ratioP2;P2;SDS_P1;SDS_P2;PMS_P1;PMS_P2;Temp;Humidity;BMP_temperature;BMP_pressure;BME280_temperature;BME280_humidity;BME280_pressure;Samples;Min_cycle;Max_cycle;Signal;HPM_P1;HPM_P2
2021/10/19 00:01:29;;;;;;;35.20;20.45;;;;;;;12.92;98.31;101747.69;5021960;28;20032;-64
2021/10/19 00:03:54;;;;;;;35.10;21.05;;;;;;;12.95;98.14;101747.72;5025290;28;20028;-63
2021/10/19 00:06:19;;;;;;;34.60;20.70;;;;;;;12.95;98.41;101746.84;5022243;28;20073;-64
2021/10/19 00:08:45;;;;;;;35.70;21.88;;;;;;;12.94;99.31;101743.28;5023465;28;20076;-63
2021/10/19 00:11:11;;;;;;;34.60;20.45;;;;;;;12.96;99.66;101745.94;5023963;28;20029;-63
2021/10/19 00:13:37;;;;;;;36.90;21.42;;;;;;;12.88;100.00;101745.88;5021966;28;20389;-64
2021/10/19 00:16:05;;;;;;;35.67;21.02;;;;;;;12.84;100.00;101758.25;5024155;28;20037;-64
2021/10/19 00:18:30;;;;;;;36.17;20.98;;;;;;;12.82;100.00;101757.34;5021817;28;20390;-64
2021/10/19 00:20:56;;;;;;;34.60;20.00;;;;;;;12.83;100.00;101764.44;5024721;28;20033;-63
2021/10/19 00:23:21;;;;;;;35.50;20.55;;;;;;;12.83;100.00;101769.72;5021713;28;20037;-63
2021/10/19 00:25:47;;;;;;;35.15;20.42;;;;;;;12.87;100.00;101776.84;5023731;28;20029;-63
2021/10/19 00:28:12;;;;;;;35.17;19.70;;;;;;;12.89;100.00;101768.91;5022800;28;20459;-63
2021/10/19 00:30:37;;;;;;;36.65;20.38;;;;;;;12.96;100.00;101760.13;5013251;28;20037;-63
2021/10/19 00:33:03;;;;;;;34.90;20.90;;;;;;;12.94;100.00;101767.16;5013119;28;20026;-63
2021/10/19 00:35:28;;;;;;;36.75;20.63;;;;;;;12.95;100.00;101768.97;5021183;28;20156;-64
2021/10/19 00:37:54;;;;;;;35.55;20.80;;;;;;;12.99;100.00;101770.78;5013253;28;20030;-63
2021/10/19 00:40:19;;;;;;;36.92;21.50;;;;;;;12.93;100.00;101776.03;5023616;28;20022;-63
2021/10/19 00:42:45;;;;;;;38.35;23.20;;;;;;;12.73;100.00;101765.22;5022489;28;20033;-71
2021/10/19 00:45:10;;;;;;;38.83;23.88;;;;;;;12.51;100.00;101757.03;5012867;28;20026;-68
2021/10/19 00:47:38;;;;;;;41.00;25.20;;;;;;;12.41;100.00;101751.59;5013202;28;20544;-67
2021/10/19 00:50:04;;;;;;;40.83;25.98;;;;;;;12.31;100.00;101742.66;5021641;28;20428;-67
2021/10/19 00:52:29;;;;;;;43.58;26.67;;;;;;;12.26;100.00;101755.88;5024674;28;20112;-68
2021/10/19 00:54:55;;;;;;;45.00;27.55;;;;;;;12.27;100.00;101748.78;5020854;28;20028;-68
2021/10/19 00:57:21;;;;;;;44.65;28.15;;;;;;;12.18;100.00;101739.84;5012754;28;20519;-67
2021/10/19 00:59:47;;;;;;;45.75;28.85;;;;;;;12.15;100.00;101737.16;5012834;28;20116;-67
2021/10/19 01:02:14;;;;;;;48.03;29.90;;;;;;;12.14;100.00;101740.69;5022770;28;20460;-68
2021/10/19 01:04:41;;;;;;;47.45;30.65;;;;;;;12.12;100.00;101742.44;5022994;28;20025;-68
2021/10/19 01:07:12;;;;;;;44.50;28.15;;;;;;;12.14;100.00;101740.69;5021806;28;20030;-68
2021/10/19 01:09:38;;;;;;;47.92;29.88;;;;;;;12.16;100.00;101740.72;5023286;28;20033;-67
2021/10/19 01:12:08;;;;;;;47.45;30.42;;;;;;;12.14;100.00;101740.69;5021228;28;20092;-67
2021/10/19 01:14:34;;;;;;;49.25;29.77;;;;;;;12.15;100.00;101741.59;5023788;28;20035;-67
2021/10/19 01:16:59;;;;;;;52.70;31.42;;;;;;;12.13;100.00;101746.88;5020776;28;20017;-66
2021/10/19 01:19:25;;;;;;;48.55;29.77;;;;;;;12.15;100.00;101734.53;5024020;28;20025;-67
2021/10/19 01:21:57;;;;;;;50.17;32.40;;;;;;;12.17;100.00;101729.22;5021509;28;20112;-69
2021/10/19 01:24:22;;;;;;;52.28;32.50;;;;;;;12.17;100.00;101721.28;5023707;28;20065;-67
2021/10/19 01:26:48;;;;;;;49.90;31.45;;;;;;;12.17;100.00;101714.25;5024625;28;20057;-67
2021/10/19 01:29:14;;;;;;;50.08;30.98;;;;;;;12.19;100.00;101712.47;5026543;28;20105;-67
2021/10/19 01:31:44;;;;;;;47.88;30.35;;;;;;;12.17;100.00;101711.59;5027022;28;20026;-68
2021/10/19 01:34:09;;;;;;;49.22;29.13;;;;;;;12.17;100.00;101703.63;5025698;28;20034;-67
2021/10/19 01:36:35;;;;;;;48.47;29.38;;;;;;;12.20;100.00;101708.97;5027401;28;20026;-67
2021/10/19 01:39:00;;;;;;;47.67;29.70;;;;;;;12.21;100.00;101709.84;5016228;28;20032;-67
2021/10/19 01:41:25;;;;;;;53.15;31.20;;;;;;;12.21;100.00;101700.13;5027797;28;20025;-67
2021/10/19 01:43:51;;;;;;;50.60;30.40;;;;;;;12.29;100.00;101697.56;5025013;28;20034;-67
2021/10/19 01:46:16;;;;;;;54.08;32.40;;;;;;;12.34;100.00;101684.38;5016029;28;20089;-68
2021/10/19 01:48:42;;;;;;;57.60;32.80;;;;;;;12.38;100.00;101664.97;5026008;28;20537;-67
2021/10/19 01:51:07;;;;;;;55.30;32.95;;;;;;;12.43;100.00;101657.06;5027093;28;20026;-67
2021/10/19 01:53:33;;;;;;;52.42;32.20;;;;;;;12.45;100.00;101661.50;5024364;28;20030;-66
2021/10/19 01:55:58;;;;;;;54.13;33.85;;;;;;;12.47;100.00;101667.69;5027301;28;20045;-67
2021/10/19 01:58:24;;;;;;;53.20;33.33;;;;;;;12.49;100.00;101657.97;5024490;28;20378;-67
2021/10/19 02:00:52;;;;;;;57.70;35.38;;;;;;;12.53;100.00;101659.78;5026579;28;20030;-66
2021/10/19 02:03:17;;;;;;;54.90;33.60;;;;;;;12.57;100.00;101666.03;5025087;28;20507;-67
2021/10/19 02:05:43;;;;;;;58.15;34.35;;;;;;;12.58;100.00;101658.94;5025561;28;20034;-66
2021/10/19 02:08:08;;;;;;;55.58;34.45;;;;;;;12.60;100.00;101659.88;5026262;28;20079;-68
2021/10/19 02:10:35;;;;;;;59.33;35.20;;;;;;;12.60;100.00;101659.88;5024389;28;20037;-67
2021/10/19 02:13:02;;;;;;;54.33;33.58;;;;;;;12.63;100.00;101646.63;5027412;28;20029;-67
2021/10/19 02:15:27;;;;;;;56.17;34.92;;;;;;;12.62;100.00;101645.72;5020009;28;20497;-67
2021/10/19 02:17:56;;;;;;;57.08;34.40;;;;;;;12.62;100.00;101659.00;5026750;28;20096;-65
2021/10/19 02:20:22;;;;;;;58.92;36.22;;;;;;;12.61;100.00;101645.72;5024675;28;20080;-68
2021/10/19 02:22:48;;;;;;;57.42;36.10;;;;;;;12.62;100.00;101642.19;5025731;28;20491;-67
2021/10/19 02:25:14;;;;;;;59.53;36.83;;;;;;;12.60;100.00;101642.19;5025123;28;20469;-67
2021/10/19 02:27:39;;;;;;;54.72;34.20;;;;;;;12.61;100.00;101641.31;5015434;28;20041;-67
2021/10/19 02:30:07;;;;;;;54.53;34.70;;;;;;;12.58;100.00;101641.25;5023770;28;20041;-67
2021/10/19 02:32:32;;;;;;;52.00;33.75;;;;;;;12.60;100.00;101638.66;5026806;28;20422;-63
2021/10/19 02:34:57;;;;;;;53.30;33.85;;;;;;;12.58;100.00;101635.97;5023566;28;20053;-66
2021/10/19 02:37:23;;;;;;;55.25;33.47;;;;;;;12.58;100.00;101629.78;5025550;28;20487;-63
2021/10/19 02:39:48;;;;;;;51.58;33.45;;;;;;;12.56;100.00;101627.13;5024818;28;20040;-65
2021/10/19 02:42:14;;;;;;;53.30;32.67;;;;;;;12.58;100.00;101640.38;5015014;28;20025;-67
2021/10/19 02:44:40;;;;;;;49.55;31.05;;;;;;;12.63;100.00;101636.03;5014863;28;20061;-63
2021/10/19 02:47:05;;;;;;;50.63;32.15;;;;;;;12.59;100.00;101631.56;5024096;28;20097;-66
2021/10/19 02:49:31;;;;;;;51.85;33.10;;;;;;;12.56;100.00;101628.00;5026698;28;20475;-63
2021/10/19 02:51:56;;;;;;;53.28;33.50;;;;;;;12.56;100.00;101632.41;5019092;28;20420;-68
2021/10/19 02:54:22;;;;;;;55.47;34.28;;;;;;;12.53;100.00;101616.47;5025920;28;20493;-67
2021/10/19 02:56:47;;;;;;;54.22;33.85;;;;;;;12.53;100.00;101616.47;5024064;28;20046;-63
2021/10/19 02:59:12;;;;;;;55.58;34.03;;;;;;;12.51;100.00;101607.63;5024411;28;20026;-63
2021/10/19 03:01:38;;;;;;;59.70;35.70;;;;;;;12.51;100.00;101607.63;5025852;28;20065;-67
2021/10/19 03:04:03;;;;;;;57.55;34.50;;;;;;;12.52;100.00;101597.03;5014435;28;20026;-65
2021/10/19 03:06:28;;;;;;;60.47;34.80;;;;;;;12.52;100.00;101609.41;5014686;28;20018;-65
2021/10/19 03:08:54;;;;;;;54.78;33.13;;;;;;;12.54;100.00;101611.19;5014617;28;20540;-63
2021/10/19 03:11:20;;;;;;;63.72;35.67;;;;;;;12.50;100.00;101604.06;5025154;28;20054;-65
2021/10/19 03:13:45;;;;;;;57.67;34.75;;;;;;;12.49;100.00;101602.28;5024334;28;20381;-64
2021/10/19 03:16:11;;;;;;;62.53;34.95;;;;;;;12.50;100.00;101600.56;5014308;28;20030;-64
2021/10/19 03:18:36;;;;;;;57.28;34.13;;;;;;;12.49;100.00;101599.63;5023095;28;20034;-66
2021/10/19 03:21:04;;;;;;;56.40;34.97;;;;;;;12.51;100.00;101613.81;5026168;28;20025;-64
2021/10/19 03:23:30;;;;;;;60.40;36.28;;;;;;;12.49;100.00;101606.72;5019003;28;20017;-67
2021/10/19 03:25:55;;;;;;;58.53;35.60;;;;;;;12.51;100.00;101602.34;5014319;28;20083;-65
2021/10/19 03:28:20;;;;;;;60.97;35.95;;;;;;;12.49;100.00;101599.63;5025403;28;20105;-66
2021/10/19 03:30:46;;;;;;;62.33;35.40;;;;;;;12.52;100.00;101602.34;5023839;28;20476;-65
2021/10/19 03:33:11;;;;;;;61.10;35.92;;;;;;;12.51;100.00;101597.91;5013736;28;20022;-64
2021/10/19 03:35:36;;;;;;;58.92;35.83;;;;;;;12.51;100.00;101592.59;5023286;28;20029;-63
2021/10/19 03:38:02;;;;;;;62.40;36.17;;;;;;;12.54;100.00;101586.44;5025816;28;20365;-63
2021/10/19 03:40:27;;;;;;;62.47;36.10;;;;;;;12.51;100.00;101575.81;5018141;28;20413;-65
2021/10/19 03:42:53;;;;;;;63.60;37.00;;;;;;;12.49;100.00;101573.13;5025064;28;20029;-65
2021/10/19 03:45:18;;;;;;;61.00;37.15;;;;;;;12.52;100.00;101583.78;5023543;28;20068;-64
2021/10/19 03:47:44;;;;;;;61.38;36.92;;;;;;;12.54;100.00;101582.03;5013785;28;20111;-66
2021/10/19 03:50:12;;;;;;;60.28;36.22;;;;;;;12.55;100.00;101582.91;5022405;28;20105;-64
2021/10/19 03:52:38;;;;;;;62.05;37.78;;;;;;;12.54;100.00;101587.31;5024502;28;20029;-64
2021/10/19 03:55:05;;;;;;;65.32;38.58;;;;;;;12.58;100.00;101590.00;5013459;28;20484;-63
2021/10/19 03:57:31;;;;;;;69.75;39.05;;;;;;;12.57;100.00;101575.84;5022206;28;20117;-64
2021/10/19 03:59:56;;;;;;;68.75;39.78;;;;;;;12.56;100.00;101572.28;5013524;28;20030;-63
2021/10/19 04:02:22;;;;;;;65.22;39.05;;;;;;;12.58;100.00;101574.09;5024789;28;20041;-63
2021/10/19 04:04:47;;;;;;;61.40;39.78;;;;;;;12.61;100.00;101582.06;5023328;28;20033;-64
2021/10/19 04:07:13;;;;;;;65.03;40.15;;;;;;;12.59;100.00;101584.69;5023194;28;20022;-64
2021/10/19 04:09:40;;;;;;;63.30;38.83;;;;;;;12.65;100.00;101578.56;5024435;28;20025;-63
2021/10/19 04:12:05;;;;;;;63.95;40.38;;;;;;;12.64;100.00;101582.06;5013331;28;20057;-64
2021/10/19 04:14:31;;;;;;;67.57;39.28;;;;;;;12.65;100.00;101583.88;5013488;28;20026;-64
2021/10/19 04:16:56;;;;;;;61.45;38.80;;;;;;;12.69;100.00;101585.66;5024874;28;20013;-63
2021/10/19 04:19:21;;;;;;;61.75;37.03;;;;;;;12.73;100.00;101590.13;5022408;28;20043;-63
2021/10/19 04:21:48;;;;;;;63.45;38.10;;;;;;;12.70;100.00;101595.41;5013199;28;20072;-64
2021/10/19 04:24:14;;;;;;;62.78;38.15;;;;;;;12.75;100.00;101591.00;5013459;28;20022;-63
2021/10/19 04:26:40;;;;;;;67.50;41.13;;;;;;;12.72;100.00;101591.00;5022346;28;20045;-64
2021/10/19 04:29:05;;;;;;;62.75;38.80;;;;;;;12.74;100.00;101583.91;5024214;28;20499;-63
2021/10/19 04:31:31;;;;;;;65.63;40.63;;;;;;;12.73;100.00;101588.34;5021492;28;20022;-64
2021/10/19 04:33:59;;;;;;;67.43;42.20;;;;;;;12.77;100.00;101581.31;5024236;28;20025;-63
2021/10/19 04:36:25;;;;;;;71.50;43.03;;;;;;;12.81;100.00;101590.16;5021801;28;20084;-63
2021/10/19 04:38:50;;;;;;;71.25;44.15;;;;;;;12.79;100.00;101592.81;5024007;28;20025;-63
2021/10/19 04:41:16;;;;;;;75.65;43.78;;;;;;;12.78;100.00;101583.06;5022793;28;20431;-64
2021/10/19 04:43:41;;;;;;;68.13;42.05;;;;;;;12.84;100.00;101593.75;5022544;28;20038;-64
2021/10/19 04:46:06;;;;;;;69.10;42.63;;;;;;;12.89;100.00;101591.13;5024107;28;20140;-63
2021/10/19 04:48:32;;;;;;;73.47;44.13;;;;;;;12.86;100.00;101586.69;5020996;28;20037;-64
2021/10/19 04:50:57;;;;;;;78.50;46.28;;;;;;;12.87;100.00;101591.13;5012833;28;20167;-63
2021/10/19 04:53:22;;;;;;;77.75;44.33;;;;;;;12.87;100.00;101599.06;5012973;28;20057;-63
2021/10/19 04:55:48;;;;;;;72.30;44.22;;;;;;;12.86;100.00;101599.06;5012535;28;20038;-64
2021/10/19 04:58:15;;;;;;;77.20;44.80;;;;;;;12.88;100.00;101595.53;5022602;28;20116;-64
2021/10/19 05:00:41;;;;;;;80.93;46.05;;;;;;;12.90;100.00;101596.44;5024668;28;20029;-64
2021/10/19 05:03:07;;;;;;;78.70;45.40;;;;;;;12.96;100.00;101589.38;5016792;28;20469;-64
2021/10/19 05:05:32;;;;;;;78.85;45.42;;;;;;;12.94;100.00;101586.72;5016744;28;20021;-63
2021/10/19 05:07:57;;;;;;;82.15;45.17;;;;;;;12.99;100.00;101587.66;5016733;28;20029;-64
2021/10/19 05:10:23;;;;;;;78.00;45.00;;;;;;;13.00;100.00;101585.88;5027837;28;20034;-66
2021/10/19 05:12:49;;;;;;;72.20;43.67;;;;;;;13.00;100.00;101586.75;5026493;28;20025;-66
2021/10/19 05:15:14;;;;;;;73.70;44.67;;;;;;;13.01;100.00;101582.34;5026237;28;20022;-64
2021/10/19 05:17:39;;;;;;;73.00;43.38;;;;;;;13.02;100.00;101584.13;5027304;28;20112;-67
2021/10/19 05:20:06;;;;;;;75.47;44.03;;;;;;;13.04;100.00;101577.06;5027413;28;20033;-64
2021/10/19 05:22:31;;;;;;;69.07;41.97;;;;;;;13.08;100.00;101573.53;5016173;28;20072;-64
2021/10/19 05:24:56;;;;;;;73.25;42.97;;;;;;;13.06;100.00;101562.91;5014824;28;20129;-64
2021/10/19 05:27:22;;;;;;;71.72;42.25;;;;;;;13.10;100.00;101569.13;5020657;28;20026;-65
2021/10/19 05:29:48;;;;;;;73.38;42.65;;;;;;;13.09;100.00;101562.03;5022421;28;20026;-65
2021/10/19 05:32:14;;;;;;;74.30;43.63;;;;;;;13.12;100.00;101562.06;5022620;28;20464;-64
2021/10/19 05:34:39;;;;;;;72.57;44.10;;;;;;;13.14;100.00;101568.25;5020862;28;20030;-64
2021/10/19 05:37:04;;;;;;;67.28;42.67;;;;;;;13.13;100.00;101566.47;5020060;28;20026;-66
2021/10/19 05:39:30;;;;;;;67.22;39.80;;;;;;;13.13;100.00;101571.78;5022461;28;20026;-64
2021/10/19 05:41:55;;;;;;;70.15;41.33;;;;;;;13.16;100.00;101568.25;5022294;28;20132;-65
2021/10/19 05:44:21;;;;;;;70.30;41.10;;;;;;;13.16;100.00;101571.78;5021337;28;20084;-64
2021/10/19 05:46:47;;;;;;;68.63;40.10;;;;;;;13.17;100.00;101568.28;5021930;28;20030;-64
2021/10/19 05:49:12;;;;;;;72.63;40.33;;;;;;;13.16;100.00;101563.81;5021554;28;20030;-65
2021/10/19 05:51:37;;;;;;;69.88;40.50;;;;;;;13.15;100.00;101566.47;5022271;28;20112;-64
2021/10/19 05:54:03;;;;;;;70.18;40.70;;;;;;;13.16;100.00;101563.81;5022702;28;20030;-65
2021/10/19 05:56:28;;;;;;;70.95;40.40;;;;;;;13.16;100.00;101558.53;5023535;28;20500;-65
2021/10/19 05:58:53;;;;;;;69.55;39.42;;;;;;;13.19;100.00;101560.31;5021232;28;20567;-65
2021/10/19 06:01:19;;;;;;;70.25;40.83;;;;;;;13.17;100.00;101555.00;5020608;28;20072;-65
2021/10/19 06:03:44;;;;;;;68.22;39.03;;;;;;;13.21;100.00;101540.00;5020309;28;20025;-64
2021/10/19 06:06:13;;;;;;;69.30;38.95;;;;;;;13.23;100.00;101557.66;5021952;28;20067;-65
2021/10/19 06:08:39;;;;;;;65.93;39.17;;;;;;;13.23;100.00;101560.31;5020796;28;20044;-65
2021/10/19 06:11:05;;;;;;;63.67;38.10;;;;;;;13.24;100.00;101562.13;5021507;28;20069;-65
2021/10/19 06:13:31;;;;;;;67.00;37.90;;;;;;;13.25;100.00;101570.94;5021871;28;20065;-65
2021/10/19 06:16:09;;;;;;;69.85;38.17;;;;;;;13.27;100.00;101571.88;5025746;28;20028;-64
2021/10/19 06:18:34;;;;;;;63.28;36.97;;;;;;;13.33;100.00;101576.31;5022222;28;20045;-66
2021/10/19 06:21:00;;;;;;;63.17;36.20;;;;;;;13.33;100.00;101571.00;5023986;28;20381;-65
2021/10/19 06:23:25;;;;;;;62.58;35.35;;;;;;;13.35;100.00;101575.50;5025995;28;20030;-65
2021/10/19 06:25:50;;;;;;;64.47;34.70;;;;;;;13.35;100.00;101563.97;5019637;28;20025;-65
2021/10/19 06:28:16;;;;;;;64.07;35.28;;;;;;;13.39;100.00;101563.97;5024177;28;20025;-65
2021/10/19 06:30:42;;;;;;;57.35;33.80;;;;;;;13.41;100.00;101564.88;5024120;28;20050;-65
2021/10/19 06:33:07;;;;;;;64.88;35.65;;;;;;;13.42;100.00;101573.72;5025825;28;20049;-64
2021/10/19 06:35:32;;;;;;;63.03;34.25;;;;;;;13.44;100.00;101561.38;5021719;28;20029;-65
2021/10/19 06:37:58;;;;;;;64.45;34.35;;;;;;;13.46;100.00;101558.72;5023048;28;20466;-65
2021/10/19 06:40:23;;;;;;;69.53;36.50;;;;;;;13.47;100.00;101555.16;5023718;28;20080;-66
2021/10/19 06:42:49;;;;;;;67.35;34.35;;;;;;;13.49;100.00;101559.59;5022347;28;20044;-65
2021/10/19 06:45:14;;;;;;;68.13;35.78;;;;;;;13.53;100.00;101563.16;5017989;28;20033;-66
2021/10/19 06:47:40;;;;;;;64.60;33.80;;;;;;;13.55;100.00;101559.59;5023482;28;20061;-66
2021/10/19 06:50:07;;;;;;;65.53;32.22;;;;;;;13.58;100.00;101559.63;5019777;28;20382;-67
2021/10/19 06:52:36;;;;;;;60.08;30.95;;;;;;;13.66;100.00;101558.75;5024892;28;20065;-65
2021/10/19 06:55:02;;;;;;;62.00;32.95;;;;;;;13.65;100.00;101555.22;5021515;28;20052;-66
2021/10/19 06:57:30;;;;;;;65.78;33.40;;;;;;;13.68;100.00;101564.97;5019756;28;20049;-67
2021/10/19 06:59:55;;;;;;;60.95;33.03;;;;;;;13.73;100.00;101563.19;5022605;28;20393;-66
2021/10/19 07:02:20;;;;;;;63.00;31.98;;;;;;;13.78;100.00;101561.47;5016881;28;20026;-65
2021/10/19 07:04:49;;;;;;;59.65;31.85;;;;;;;13.80;100.00;101557.03;5016245;28;20045;-66
2021/10/19 07:07:14;;;;;;;60.30;32.10;;;;;;;13.81;100.00;101555.28;5021602;28;20027;-63
2021/10/19 07:09:39;;;;;;;61.00;31.30;;;;;;;13.81;100.00;101555.28;5016231;28;20018;-65
2021/10/19 07:12:05;;;;;;;60.47;31.10;;;;;;;13.85;100.00;101563.25;5021570;28;20069;-65
2021/10/19 07:14:31;;;;;;;59.83;30.88;;;;;;;13.87;100.00;101558.81;5020176;28;20485;-65
2021/10/19 07:16:58;;;;;;;58.97;31.95;;;;;;;13.88;100.00;101565.03;5020278;28;20044;-67
2021/10/19 07:19:23;;;;;;;59.15;31.13;;;;;;;13.91;100.00;101563.25;5019099;28;20639;-67
2021/10/19 07:21:49;;;;;;;61.63;31.20;;;;;;;13.89;100.00;101558.81;5021345;28;20026;-63
2021/10/19 07:24:14;;;;;;;54.80;31.38;;;;;;;13.98;100.00;101573.88;5020609;28;20028;-62
2021/10/19 07:26:39;;;;;;;55.42;30.65;;;;;;;13.97;100.00;101577.47;5021571;28;20451;-62
2021/10/19 07:29:05;;;;;;;55.50;29.70;;;;;;;14.00;100.00;101566.81;5017835;28;20540;-62
2021/10/19 07:31:31;;;;;;;55.67;29.70;;;;;;;14.00;100.00;101572.13;5022255;28;20030;-62
2021/10/19 07:33:56;;;;;;;54.22;29.92;;;;;;;14.01;100.00;101568.56;5020168;28;20092;-63
2021/10/19 07:36:21;;;;;;;53.53;30.02;;;;;;;14.02;100.00;101581.88;5021431;28;20469;-63
2021/10/19 07:38:48;;;;;;;52.58;30.00;;;;;;;14.03;100.00;101577.47;5019817;28;20095;-62
2021/10/19 07:41:14;;;;;;;52.92;30.23;;;;;;;14.05;100.00;101581.00;5018479;28;20026;-62
2021/10/19 07:43:40;;;;;;;54.88;29.40;;;;;;;14.05;100.00;101575.66;5023937;28;20030;-67
2021/10/19 07:46:05;;;;;;;53.35;29.25;;;;;;;14.08;100.00;101578.34;5024363;28;20033;-63
2021/10/19 07:48:31;;;;;;;51.17;27.42;;;;;;;14.08;100.00;101575.69;5025203;28;20060;-67
2021/10/19 07:50:57;;;;;;;51.45;29.33;;;;;;;14.12;100.00;101586.34;5023189;28;20034;-67
2021/10/19 07:53:23;;;;;;;48.40;27.20;;;;;;;14.18;100.00;101577.47;5025326;28;20392;-65
2021/10/19 07:55:48;;;;;;;48.20;27.35;;;;;;;14.20;100.00;101582.78;5013281;28;20045;-68
2021/10/19 07:58:13;;;;;;;48.92;27.20;;;;;;;14.21;100.00;101572.19;5013427;28;20030;-67
2021/10/19 08:00:39;;;;;;;47.20;25.63;;;;;;;14.25;100.00;101571.25;5013765;28;20022;-67
2021/10/19 08:03:04;;;;;;;48.00;27.35;;;;;;;14.28;100.00;101579.28;5013323;28;20029;-67
2021/10/19 08:05:30;;;;;;;45.67;25.55;;;;;;;14.30;100.00;101587.25;5024717;28;20036;-64
2021/10/19 08:08:12;;;;;;;48.15;26.88;;;;;;;14.30;100.00;101588.13;5022418;28;20542;-63
2021/10/19 08:10:40;;;;;;;43.70;24.83;;;;;;;14.33;100.00;101583.69;5018939;28;20380;-63
2021/10/19 08:13:06;;;;;;;44.53;25.65;;;;;;;14.35;100.00;101579.25;5018223;28;20021;-65
2021/10/19 08:15:33;;;;;;;41.28;23.42;;;;;;;14.36;100.00;101581.00;5023721;28;20068;-65
2021/10/19 08:17:58;;;;;;;41.58;23.60;;;;;;;14.39;100.00;101575.72;5020932;28;20473;-65
2021/10/19 08:20:23;;;;;;;41.53;23.77;;;;;;;14.39;100.00;101581.03;5022478;28;20039;-66
2021/10/19 08:22:49;;;;;;;41.20;23.20;;;;;;;14.39;100.00;101584.56;5020306;28;20481;-65
2021/10/19 08:25:14;;;;;;;39.65;22.40;;;;;;;14.41;100.00;101595.22;5023354;28;20037;-64
2021/10/19 08:27:42;;;;;;;39.22;22.58;;;;;;;14.41;100.00;101592.56;5021697;28;20053;-66
2021/10/19 08:30:11;;;;;;;38.30;22.33;;;;;;;14.40;100.00;101585.44;5020789;28;20014;-65
2021/10/19 08:32:37;;;;;;;40.05;22.42;;;;;;;14.46;100.00;101582.81;5019744;28;20116;-65
2021/10/19 08:35:03;;;;;;;38.28;21.30;;;;;;;14.46;100.00;101580.16;5019056;28;20372;-64
2021/10/19 08:37:28;;;;;;;38.53;21.48;;;;;;;14.50;100.00;101573.94;5021314;28;20022;-63
2021/10/19 08:39:54;;;;;;;38.88;22.27;;;;;;;14.51;100.00;101570.38;5018860;28;20036;-64
2021/10/19 08:42:19;;;;;;;38.67;21.95;;;;;;;14.51;100.00;101569.50;5019442;28;20039;-64
2021/10/19 08:44:45;;;;;;;37.42;21.55;;;;;;;14.51;100.00;101577.50;5020564;28;20085;-65
2021/10/19 08:47:11;;;;;;;38.13;21.75;;;;;;;14.51;100.00;101580.16;5016047;28;20117;-66
2021/10/19 08:49:37;;;;;;;36.53;21.73;;;;;;;14.46;100.00;101566.84;5021160;28;20021;-64
2021/10/19 08:52:03;;;;;;;36.42;21.15;;;;;;;14.44;100.00;101574.81;5017058;28;20042;-64
2021/10/19 08:54:29;;;;;;;37.58;22.30;;;;;;;14.48;100.00;101581.03;5020212;28;20033;-64
2021/10/19 08:56:54;;;;;;;39.17;21.83;;;;;;;14.49;100.00;101580.16;5018078;28;20046;-66
2021/10/19 08:59:25;;;;;;;38.75;21.95;;;;;;;14.54;100.00;101591.66;5015317;28;20116;-66
2021/10/19 09:01:56;;;;;;;38.28;21.80;;;;;;;14.54;100.00;101589.00;5017692;28;20499;-67
2021/10/19 09:04:27;;;;;;;39.03;22.38;;;;;;;14.55;100.00;101585.47;5014657;28;20030;-67
2021/10/19 09:06:52;;;;;;;37.83;20.50;;;;;;;14.58;100.00;101582.81;5020384;28;20033;-67
2021/10/19 09:09:22;;;;;;;37.60;21.25;;;;;;;14.58;100.00;101585.47;5018217;28;20102;-67
2021/10/19 09:11:48;;;;;;;37.30;20.70;;;;;;;14.60;100.00;101588.13;5021185;28;20029;-67
2021/10/19 09:14:16;;;;;;;35.63;19.80;;;;;;;14.61;100.00;101585.50;5021547;28;20021;-67
2021/10/19 09:16:46;;;;;;;35.05;19.30;;;;;;;14.66;100.00;101584.59;5020659;28;20022;-68
2021/10/19 09:19:14;;;;;;;35.53;19.73;;;;;;;14.68;100.00;101574.84;5023725;28;20510;-67
2021/10/19 09:21:45;;;;;;;39.38;21.27;;;;;;;14.68;100.00;101578.41;5020729;28;20022;-67
2021/10/19 09:24:32;;;;;;;39.47;22.15;;;;;;;14.74;100.00;101573.06;5019359;28;20486;-67
2021/10/19 09:27:09;;;;;;;41.13;22.27;;;;;;;14.77;100.00;101577.50;5022418;28;20025;-67
2021/10/19 09:29:46;;;;;;;41.40;22.80;;;;;;;14.77;100.00;101575.72;5012690;28;20373;-67
2021/10/19 09:32:13;;;;;;;39.53;21.92;;;;;;;14.85;100.00;101578.34;5012645;28;20062;-68
2021/10/19 09:34:41;;;;;;;42.38;23.75;;;;;;;14.85;100.00;101581.03;5012483;28;20156;-67
2021/10/19 09:37:08;;;;;;;42.15;23.45;;;;;;;14.88;100.00;101581.03;5012499;28;20045;-67
2021/10/19 09:39:38;;;;;;;44.30;24.70;;;;;;;14.92;100.00;101592.56;5012571;28;20029;-67
2021/10/19 09:42:18;;;;;;;46.45;24.77;;;;;;;14.92;100.00;101592.56;5012332;28;20030;-66
2021/10/19 09:44:57;;;;;;;46.20;24.88;;;;;;;14.95;100.00;101596.09;5023704;28;20036;-68
2021/10/19 09:47:39;;;;;;;44.78;25.08;;;;;;;14.97;100.00;101593.44;5019441;28;20424;-67
2021/10/19 09:50:09;;;;;;;44.65;24.73;;;;;;;14.98;100.00;101593.44;5024025;28;20025;-67
2021/10/19 09:52:39;;;;;;;47.17;26.30;;;;;;;14.98;100.00;101593.44;5015965;28;20037;-67
2021/10/19 09:55:07;;;;;;;47.13;25.38;;;;;;;15.02;100.00;101596.97;5016321;28;20029;-67
2021/10/19 09:57:34;;;;;;;49.53;27.10;;;;;;;15.04;100.00;101591.63;5015564;28;20054;-66
2021/10/19 10:00:00;;;;;;;51.58;27.45;;;;;;;15.11;100.00;101598.72;5025760;28;20038;-67
2021/10/19 10:02:25;;;;;;;51.78;27.02;;;;;;;15.17;100.00;101596.03;5026443;28;20465;-67
2021/10/19 10:04:52;;;;;;;53.30;27.75;;;;;;;15.15;100.00;101600.50;5024384;28;20034;-67
2021/10/19 10:07:21;;;;;;;53.42;28.48;;;;;;;15.21;100.00;101600.47;5027350;28;20029;-67
2021/10/19 10:09:46;;;;;;;54.35;28.95;;;;;;;15.26;100.00;101608.44;5015859;28;20026;-67
2021/10/19 10:12:12;;;;;;;52.67;27.30;;;;;;;15.26;100.00;101609.34;5015463;28;20428;-67
2021/10/19 10:14:46;;;;;;;53.38;28.20;;;;;;;15.29;100.00;101598.69;5026255;28;20053;-67
2021/10/19 10:17:12;;;;;;;54.45;28.90;;;;;;;15.33;100.00;101602.22;5024078;28;20029;-67
2021/10/19 10:19:38;;;;;;;54.15;27.92;;;;;;;15.32;100.00;101601.34;5026392;28;20072;-67
2021/10/19 10:22:16;;;;;;;56.03;28.40;;;;;;;15.37;100.00;101597.78;5024911;28;20022;-64
2021/10/19 10:24:42;;;;;;;55.65;29.50;;;;;;;15.39;100.00;101587.97;5015177;28;20092;-64
2021/10/19 10:27:13;;;;;;;56.70;29.58;;;;;;;15.44;100.00;101596.84;5026301;28;20061;-65
2021/10/19 10:29:47;;;;;;;56.15;29.55;;;;;;;15.49;100.00;101595.03;5024230;28;20037;-65
2021/10/19 10:32:25;;;;;;;56.85;28.48;;;;;;;15.48;100.00;101594.16;5019709;28;20358;-64
2021/10/19 10:35:06;;;;;;;58.42;29.38;;;;;;;15.49;100.00;101597.72;5020585;28;20041;-65
2021/10/19 10:37:44;;;;;;;59.38;30.75;;;;;;;15.47;100.00;101595.06;5024957;28;20060;-64
2021/10/19 10:40:13;;;;;;;56.20;28.75;;;;;;;15.51;100.00;101595.94;5026541;28;20022;-64
2021/10/19 10:42:42;;;;;;;60.35;31.67;;;;;;;15.55;100.00;101589.69;5023522;28;20041;-64
2021/10/19 10:45:17;;;;;;;55.55;29.17;;;;;;;15.62;100.00;101595.88;5022144;28;20033;-65
2021/10/19 10:47:47;;;;;;;59.45;30.45;;;;;;;15.59;100.00;101594.09;5019493;28;20037;-65
2021/10/19 10:50:14;;;;;;;67.45;31.98;;;;;;;15.56;100.00;101583.47;5019574;28;20022;-64
2021/10/19 10:52:39;;;;;;;62.38;29.30;;;;;;;15.58;100.00;101573.72;5026297;28;20072;-65
2021/10/19 10:55:12;;;;;;;60.50;30.92;;;;;;;15.61;100.00;101583.44;5023536;28;20434;-65
2021/10/19 10:57:42;;;;;;;67.20;33.42;;;;;;;15.58;100.00;101581.69;5014817;28;20121;-64
2021/10/19 11:00:08;;;;;;;72.43;34.70;;;;;;;15.59;100.00;101579.91;5014494;28;20465;-65